sensor_id;sensor_type;location;lat;lon;timestamp;pressure;altitude;pressure_sealevel;temperature;humidity
84136;BME280;74238;50.566;7.262;2024-03-08T00:00:00;101085.16;;;4.37;61.74
84136;BME280;74238;50.566;7.262;2024-03-08T00:02:46;101085.94;;;4.32;62.90
84136;BME280;74238;50.566;7.262;2024-03-08T00:05:13;101085.03;;;4.31;62.32
84136;BME280;74238;50.566;7.262;2024-03-08T00:07:39;101083.22;;;4.29;62.29
84136;BME280;74238;50.566;7.262;2024-03-08T00:10:09;101078.88;;;4.28;61.94
84136;BME280;74238;50.566;7.262;2024-03-08T00:12:37;101075.34;;;4.26;62.06
84136;BME280;74238;50.566;7.262;2024-03-08T00:15:02;101074.44;;;4.24;62.30
84136;BME280;74238;50.566;7.262;2024-03-08T00:17:27;101067.34;;;4.18;62.48
84136;BME280;74238;50.566;7.262;2024-03-08T00:19:53;101070.00;;;4.19;62.83
84136;BME280;74238;50.566;7.262;2024-03-08T00:22:19;101073.38;;;4.14;62.46
84136;BME280;74238;50.566;7.262;2024-03-08T00:24:44;101070.72;;;4.11;63.00
84136;BME280;74238;50.566;7.262;2024-03-08T00:27:10;101071.53;;;4.08;62.54
84136;BME280;74238;50.566;7.262;2024-03-08T00:29:36;101066.31;;;4.08;63.20
84136;BME280;74238;50.566;7.262;2024-03-08T00:32:04;101076.69;;;4.05;63.11
84136;BME280;74238;50.566;7.262;2024-03-08T00:34:29;101060.97;;;4.02;63.21
84136;BME280;74238;50.566;7.262;2024-03-08T00:36:54;101067.94;;;4.03;62.77
84136;BME280;74238;50.566;7.262;2024-03-08T00:39:19;101060.97;;;4.02;63.01
84136;BME280;74238;50.566;7.262;2024-03-08T00:41:46;101050.41;;;3.97;63.03
84136;BME280;74238;50.566;7.262;2024-03-08T00:44:12;101041.66;;;3.95;62.98
84136;BME280;74238;50.566;7.262;2024-03-08T00:46:38;101050.47;;;3.99;62.90
84136;BME280;74238;50.566;7.262;2024-03-08T00:49:03;101033.66;;;3.86;63.25
84136;BME280;74238;50.566;7.262;2024-03-08T00:51:28;101046.03;;;3.95;63.41
84136;BME280;74238;50.566;7.262;2024-03-08T00:53:54;101038.94;;;3.89;63.83
84136;BME280;74238;50.566;7.262;2024-03-08T00:56:19;101028.41;;;3.85;63.83
84136;BME280;74238;50.566;7.262;2024-03-08T00:58:44;101043.31;;;3.90;63.54
84136;BME280;74238;50.566;7.262;2024-03-08T01:01:10;101038.00;;;3.86;64.08
84136;BME280;74238;50.566;7.262;2024-03-08T01:03:36;101041.44;;;3.85;64.20
84136;BME280;74238;50.566;7.262;2024-03-08T01:06:01;101033.56;;;3.82;63.98
84136;BME280;74238;50.566;7.262;2024-03-08T01:08:27;101025.66;;;3.78;64.04
84136;BME280;74238;50.566;7.262;2024-03-08T01:10:53;101015.06;;;3.69;64.39
84136;BME280;74238;50.566;7.262;2024-03-08T01:13:18;101023.84;;;3.74;64.00
84136;BME280;74238;50.566;7.262;2024-03-08T01:15:44;101032.53;;;3.73;64.19
84136;BME280;74238;50.566;7.262;2024-03-08T01:18:10;101012.44;;;3.69;64.33
84136;BME280;74238;50.566;7.262;2024-03-08T01:20:35;101012.44;;;3.69;64.29
84136;BME280;74238;50.566;7.262;2024-03-08T01:23:01;101015.88;;;3.68;64.86
84136;BME280;74238;50.566;7.262;2024-03-08T01:25:26;101014.97;;;3.66;64.34
84136;BME280;74238;50.566;7.262;2024-03-08T01:27:52;101005.38;;;3.65;64.19
84136;BME280;74238;50.566;7.262;2024-03-08T01:30:18;101000.09;;;3.62;64.75
84136;BME280;74238;50.566;7.262;2024-03-08T01:32:44;101002.72;;;3.62;64.57
84136;BME280;74238;50.566;7.262;2024-03-08T01:35:09;100998.25;;;3.58;64.42
84136;BME280;74238;50.566;7.262;2024-03-08T01:37:35;100995.59;;;3.55;64.67
84136;BME280;74238;50.566;7.262;2024-03-08T01:40:01;100969.44;;;3.52;64.66
84136;BME280;74238;50.566;7.262;2024-03-08T01:42:28;100985.22;;;3.58;64.83
84136;BME280;74238;50.566;7.262;2024-03-08T01:44:53;100978.25;;;3.57;64.82
84136;BME280;74238;50.566;7.262;2024-03-08T01:47:19;100981.72;;;3.58;64.52
84136;BME280;74238;50.566;7.262;2024-03-08T01:49:51;100990.44;;;3.58;64.91
84136;BME280;74238;50.566;7.262;2024-03-08T01:52:17;100965.13;;;3.54;64.74
84136;BME280;74238;50.566;7.262;2024-03-08T01:54:44;100971.22;;;3.54;65.16
84136;BME280;74238;50.566;7.262;2024-03-08T01:57:10;100960.69;;;3.48;64.85
84136;BME280;74238;50.566;7.262;2024-03-08T01:59:37;100961.59;;;3.50;64.79
84136;BME280;74238;50.566;7.262;2024-03-08T02:02:04;100965.03;;;3.48;65.06
84136;BME280;74238;50.566;7.262;2024-03-08T02:04:31;100963.25;;;3.47;65.10
84136;BME280;74238;50.566;7.262;2024-03-08T02:06:56;100952.72;;;3.42;65.36
84136;BME280;74238;50.566;7.262;2024-03-08T02:09:23;100953.59;;;3.43;65.94
84136;BME280;74238;50.566;7.262;2024-03-08T02:11:49;100962.25;;;3.40;65.13
84136;BME280;74238;50.566;7.262;2024-03-08T02:14:15;100967.41;;;3.39;65.58
84136;BME280;74238;50.566;7.262;2024-03-08T02:16:40;100970.03;;;3.37;65.26
84136;BME280;74238;50.566;7.262;2024-03-08T02:19:05;100966.53;;;3.37;65.33
84136;BME280;74238;50.566;7.262;2024-03-08T02:21:35;100955.19;;;3.35;65.52
84136;BME280;74238;50.566;7.262;2024-03-08T02:24:01;100944.75;;;3.35;65.70
84136;BME280;74238;50.566;7.262;2024-03-08T02:26:27;100950.84;;;3.35;65.63
84136;BME280;74238;50.566;7.262;2024-03-08T02:28:52;100946.47;;;3.34;65.65
84136;BME280;74238;50.566;7.262;2024-03-08T02:31:17;100928.81;;;3.22;65.53
84136;BME280;74238;50.566;7.262;2024-03-08T02:33:43;100951.69;;;3.34;65.69
84136;BME280;74238;50.566;7.262;2024-03-08T02:36:09;100895.25;;;2.97;65.79
84136;BME280;74238;50.566;7.262;2024-03-08T02:38:34;100969.03;;;3.32;65.67
84136;BME280;74238;50.566;7.262;2024-03-08T02:40:59;100949.84;;;3.30;65.65
84136;BME280;74238;50.566;7.262;2024-03-08T02:43:24;100946.38;;;3.29;65.46
84136;BME280;74238;50.566;7.262;2024-03-08T02:45:50;100939.41;;;3.28;65.72
84136;BME280;74238;50.566;7.262;2024-03-08T02:48:18;100918.22;;;3.13;65.70
84136;BME280;74238;50.566;7.262;2024-03-08T02:50:44;100939.31;;;3.25;65.71
84136;BME280;74238;50.566;7.262;2024-03-08T02:53:11;100947.09;;;3.22;65.85
84136;BME280;74238;50.566;7.262;2024-03-08T02:55:37;100934.78;;;3.15;65.85
84136;BME280;74238;50.566;7.262;2024-03-08T02:58:03;100933.84;;;3.13;65.84
84136;BME280;74238;50.566;7.262;2024-03-08T03:00:29;100928.69;;;3.16;66.35
84136;BME280;74238;50.566;7.262;2024-03-08T03:02:56;100938.25;;;3.16;65.89
84136;BME280;74238;50.566;7.262;2024-03-08T03:05:22;100930.31;;;3.11;66.24
84136;BME280;74238;50.566;7.262;2024-03-08T03:07:48;100932.94;;;3.11;66.28
84136;BME280;74238;50.566;7.262;2024-03-08T03:10:15;100930.28;;;3.08;66.41
84136;BME280;74238;50.566;7.262;2024-03-08T03:12:45;100926.75;;;3.06;66.56
84136;BME280;74238;50.566;7.262;2024-03-08T03:15:14;100934.50;;;3.03;66.44
84136;BME280;74238;50.566;7.262;2024-03-08T03:17:39;100944.06;;;3.02;66.25
84136;BME280;74238;50.566;7.262;2024-03-08T03:20:08;100921.34;;;2.98;67.07
84136;BME280;74238;50.566;7.262;2024-03-08T03:22:39;100891.50;;;2.82;66.21
84136;BME280;74238;50.566;7.262;2024-03-08T03:25:07;100920.47;;;2.98;66.68
84136;BME280;74238;50.566;7.262;2024-03-08T03:27:33;100916.94;;;2.94;67.31
84136;BME280;74238;50.566;7.262;2024-03-08T03:29:58;100918.69;;;2.94;66.76
84136;BME280;74238;50.566;7.262;2024-03-08T03:32:44;100913.41;;;2.92;67.04
84136;BME280;74238;50.566;7.262;2024-03-08T03:35:12;100911.66;;;2.91;66.41
84136;BME280;74238;50.566;7.262;2024-03-08T03:37:37;100911.63;;;2.89;66.89
84136;BME280;74238;50.566;7.262;2024-03-08T03:40:05;100913.34;;;2.89;67.00
84136;BME280;74238;50.566;7.262;2024-03-08T03:42:30;100890.53;;;2.79;67.00
84136;BME280;74238;50.566;7.262;2024-03-08T03:44:56;100911.59;;;2.88;66.37
84136;BME280;74238;50.566;7.262;2024-03-08T03:47:21;100912.41;;;2.85;67.04
84136;BME280;74238;50.566;7.262;2024-03-08T03:49:47;100882.53;;;2.71;66.84
84136;BME280;74238;50.566;7.262;2024-03-08T03:52:12;100904.53;;;2.84;67.09
84136;BME280;74238;50.566;7.262;2024-03-08T03:54:38;100901.00;;;2.80;67.23
84136;BME280;74238;50.566;7.262;2024-03-08T03:57:03;100896.47;;;2.73;67.46
84136;BME280;74238;50.566;7.262;2024-03-08T03:59:29;100906.16;;;2.77;67.62
84136;BME280;74238;50.566;7.262;2024-03-08T04:01:54;100903.47;;;2.74;67.60
84136;BME280;74238;50.566;7.262;2024-03-08T04:04:20;100896.47;;;2.73;67.22
84136;BME280;74238;50.566;7.262;2024-03-08T04:06:46;100902.63;;;2.75;67.18
84136;BME280;74238;50.566;7.262;2024-03-08T04:09:11;100897.41;;;2.77;67.45
84136;BME280;74238;50.566;7.262;2024-03-08T04:11:38;100894.81;;;2.77;67.43
84136;BME280;74238;50.566;7.262;2024-03-08T04:14:03;100871.97;;;2.65;67.48
84136;BME280;74238;50.566;7.262;2024-03-08T04:16:30;100892.19;;;2.75;67.69
84136;BME280;74238;50.566;7.262;2024-03-08T04:18:55;100907.84;;;2.75;67.15
84136;BME280;74238;50.566;7.262;2024-03-08T04:21:20;100829.69;;;2.37;67.18
84136;BME280;74238;50.566;7.262;2024-03-08T04:23:46;100877.25;;;2.68;68.23
84136;BME280;74238;50.566;7.262;2024-03-08T04:26:11;100862.13;;;2.52;67.63
84136;BME280;74238;50.566;7.262;2024-03-08T04:28:36;100882.47;;;2.68;67.40
84136;BME280;74238;50.566;7.262;2024-03-08T04:31:03;100882.44;;;2.66;67.68
84136;BME280;74238;50.566;7.262;2024-03-08T04:33:28;100889.31;;;2.63;67.49
84136;BME280;74238;50.566;7.262;2024-03-08T04:35:53;100836.50;;;2.32;67.53
84136;BME280;74238;50.566;7.262;2024-03-08T04:38:19;100878.72;;;2.55;67.81
84136;BME280;74238;50.566;7.262;2024-03-08T04:40:46;100849.59;;;2.34;67.51
84136;BME280;74238;50.566;7.262;2024-03-08T04:43:11;100880.31;;;2.49;67.97
84136;BME280;74238;50.566;7.262;2024-03-08T04:45:37;100877.69;;;2.47;67.82
84136;BME280;74238;50.566;7.262;2024-03-08T04:48:02;100881.09;;;2.44;68.37
84136;BME280;74238;50.566;7.262;2024-03-08T04:50:27;100876.72;;;2.43;68.50
84136;BME280;74238;50.566;7.262;2024-03-08T04:52:56;100867.91;;;2.38;67.91
84136;BME280;74238;50.566;7.262;2024-03-08T04:55:21;100871.38;;;2.37;68.63
84136;BME280;74238;50.566;7.262;2024-03-08T04:57:47;100847.53;;;2.20;68.93
84136;BME280;74238;50.566;7.262;2024-03-08T05:00:13;100868.69;;;2.34;69.10
84136;BME280;74238;50.566;7.262;2024-03-08T05:02:39;100866.03;;;2.31;69.63
84136;BME280;74238;50.566;7.262;2024-03-08T05:05:05;100855.38;;;2.22;68.48
84136;BME280;74238;50.566;7.262;2024-03-08T05:07:31;100871.16;;;2.28;68.77
84136;BME280;74238;50.566;7.262;2024-03-08T05:09:58;100858.94;;;2.26;69.45
84136;BME280;74238;50.566;7.262;2024-03-08T05:12:23;100816.59;;;1.98;69.35
84136;BME280;74238;50.566;7.262;2024-03-08T05:14:48;100856.22;;;2.21;68.88
84136;BME280;74238;50.566;7.262;2024-03-08T05:17:15;100861.44;;;2.21;69.52
84136;BME280;74238;50.566;7.262;2024-03-08T05:19:40;100856.16;;;2.19;69.52
84136;BME280;74238;50.566;7.262;2024-03-08T05:22:05;100857.09;;;2.20;69.08
84136;BME280;74238;50.566;7.262;2024-03-08T05:24:31;100848.34;;;2.18;69.06
84136;BME280;74238;50.566;7.262;2024-03-08T05:26:56;100850.97;;;2.19;69.44
84136;BME280;74238;50.566;7.262;2024-03-08T05:29:21;100860.50;;;2.19;69.22
84136;BME280;74238;50.566;7.262;2024-03-08T05:31:49;100700.31;;;1.23;68.87
84136;BME280;74238;50.566;7.262;2024-03-08T05:34:16;100854.28;;;2.12;68.89
84136;BME280;74238;50.566;7.262;2024-03-08T05:36:42;100857.66;;;2.08;69.51
84136;BME280;74238;50.566;7.262;2024-03-08T05:39:13;100862.03;;;2.09;69.22
84136;BME280;74238;50.566;7.262;2024-03-08T05:41:39;100855.03;;;2.07;70.17
84136;BME280;74238;50.566;7.262;2024-03-08T05:44:05;100835.81;;;2.02;69.41
84136;BME280;74238;50.566;7.262;2024-03-08T05:46:30;100852.31;;;2.02;69.61
84136;BME280;74238;50.566;7.262;2024-03-08T05:48:56;100847.03;;;2.00;69.83
84136;BME280;74238;50.566;7.262;2024-03-08T05:51:23;100845.28;;;1.99;70.45
84136;BME280;74238;50.566;7.262;2024-03-08T05:53:49;100837.41;;;1.96;69.90
84136;BME280;74238;50.566;7.262;2024-03-08T05:56:14;100844.44;;;2.00;70.49
84136;BME280;74238;50.566;7.262;2024-03-08T05:58:39;100841.81;;;1.99;69.89
84136;BME280;74238;50.566;7.262;2024-03-08T06:01:05;100838.34;;;2.00;70.57
84136;BME280;74238;50.566;7.262;2024-03-08T06:03:33;100839.22;;;2.00;70.35
84136;BME280;74238;50.566;7.262;2024-03-08T06:05:59;100839.22;;;1.99;70.51
84136;BME280;74238;50.566;7.262;2024-03-08T06:08:24;100837.63;;;2.06;70.11
84136;BME280;74238;50.566;7.262;2024-03-08T06:10:55;100834.22;;;2.08;70.25
84136;BME280;74238;50.566;7.262;2024-03-08T06:13:20;100831.59;;;2.08;70.61
84136;BME280;74238;50.566;7.262;2024-03-08T06:15:45;100832.59;;;2.12;69.96
84136;BME280;74238;50.566;7.262;2024-03-08T06:18:12;100819.41;;;2.06;70.19
84136;BME280;74238;50.566;7.262;2024-03-08T06:20:37;100827.38;;;2.13;70.73
84136;BME280;74238;50.566;7.262;2024-03-08T06:23:03;100830.88;;;2.14;70.71
84136;BME280;74238;50.566;7.262;2024-03-08T06:25:28;100823.97;;;2.16;70.66
84136;BME280;74238;50.566;7.262;2024-03-08T06:27:53;100794.94;;;1.99;70.06
84136;BME280;74238;50.566;7.262;2024-03-08T06:30:18;100826.63;;;2.17;69.99
84136;BME280;74238;50.566;7.262;2024-03-08T06:32:46;100830.94;;;2.17;69.74
84136;BME280;74238;50.566;7.262;2024-03-08T06:35:12;100832.72;;;2.18;70.50
84136;BME280;74238;50.566;7.262;2024-03-08T06:37:37;100754.41;;;1.72;70.06
84136;BME280;74238;50.566;7.262;2024-03-08T06:40:03;100826.63;;;2.17;69.52
84136;BME280;74238;50.566;7.262;2024-03-08T06:42:28;100825.72;;;2.17;70.35
84136;BME280;74238;50.566;7.262;2024-03-08T06:44:54;100813.44;;;2.11;70.04
84136;BME280;74238;50.566;7.262;2024-03-08T06:47:24;100819.63;;;2.15;70.68
84136;BME280;74238;50.566;7.262;2024-03-08T06:49:51;100783.66;;;1.98;70.41
84136;BME280;74238;50.566;7.262;2024-03-08T06:52:17;100824.09;;;2.22;70.47
84136;BME280;74238;50.566;7.262;2024-03-08T06:54:43;100715.13;;;1.62;69.92
84136;BME280;74238;50.566;7.262;2024-03-08T06:57:08;100832.16;;;2.31;69.80
84136;BME280;74238;50.566;7.262;2024-03-08T06:59:35;100827.00;;;2.34;70.19
84136;BME280;74238;50.566;7.262;2024-03-08T07:02:01;100780.50;;;2.12;69.95
84136;BME280;74238;50.566;7.262;2024-03-08T07:04:27;100829.75;;;2.40;70.23
84136;BME280;74238;50.566;7.262;2024-03-08T07:06:57;100831.59;;;2.46;69.81
84136;BME280;74238;50.566;7.262;2024-03-08T07:09:23;100816.06;;;2.51;70.11
84136;BME280;74238;50.566;7.262;2024-03-08T07:11:49;100787.19;;;2.40;69.97
84136;BME280;74238;50.566;7.262;2024-03-08T07:14:22;100811.84;;;2.57;69.90
84136;BME280;74238;50.566;7.262;2024-03-08T07:16:48;100801.41;;;2.56;69.41
84136;BME280;74238;50.566;7.262;2024-03-08T07:19:14;100809.34;;;2.62;69.31
84136;BME280;74238;50.566;7.262;2024-03-08T07:21:40;100815.66;;;2.73;69.32
84136;BME280;74238;50.566;7.262;2024-03-08T07:24:07;100808.81;;;2.78;69.60
84136;BME280;74238;50.566;7.262;2024-03-08T07:26:53;100821.09;;;2.84;69.37
84136;BME280;74238;50.566;7.262;2024-03-08T07:29:18;100815.13;;;2.88;69.34
84136;BME280;74238;50.566;7.262;2024-03-08T07:31:43;100767.00;;;2.74;68.51
84136;BME280;74238;50.566;7.262;2024-03-08T07:34:28;100800.56;;;3.01;68.93
84136;BME280;74238;50.566;7.262;2024-03-08T07:36:57;100742.72;;;2.75;68.63
84136;BME280;74238;50.566;7.262;2024-03-08T07:39:22;100768.28;;;2.94;68.79
84136;BME280;74238;50.566;7.262;2024-03-08T07:41:49;100787.81;;;3.16;68.76
84136;BME280;74238;50.566;7.262;2024-03-08T07:44:14;100791.41;;;3.21;68.95
84136;BME280;74238;50.566;7.262;2024-03-08T07:46:39;100791.47;;;3.24;68.42
84136;BME280;74238;50.566;7.262;2024-03-08T07:49:06;100731.88;;;2.99;68.87
84136;BME280;74238;50.566;7.262;2024-03-08T07:51:31;100781.25;;;3.37;68.43
84136;BME280;74238;50.566;7.262;2024-03-08T07:53:57;100795.22;;;3.42;68.85
84136;BME280;74238;50.566;7.262;2024-03-08T07:56:22;100742.78;;;3.26;68.12
84136;BME280;74238;50.566;7.262;2024-03-08T07:58:48;100774.53;;;3.51;68.39
84136;BME280;74238;50.566;7.262;2024-03-08T08:01:17;100778.09;;;3.58;68.60
84136;BME280;74238;50.566;7.262;2024-03-08T08:03:43;100770.41;;;3.64;68.23
84136;BME280;74238;50.566;7.262;2024-03-08T08:06:09;100767.84;;;3.68;68.52
84136;BME280;74238;50.566;7.262;2024-03-08T08:08:35;100760.97;;;3.73;67.99
84136;BME280;74238;50.566;7.262;2024-03-08T08:11:00;100748.81;;;3.77;68.00
84136;BME280;74238;50.566;7.262;2024-03-08T08:13:27;100752.44;;;3.85;68.02
84136;BME280;74238;50.566;7.262;2024-03-08T08:15:57;100743.84;;;3.92;68.03
84136;BME280;74238;50.566;7.262;2024-03-08T08:18:22;100747.44;;;3.99;68.06
84136;BME280;74238;50.566;7.262;2024-03-08T08:20:50;100721.16;;;3.88;67.93
84136;BME280;74238;50.566;7.262;2024-03-08T08:23:15;100739.78;;;4.14;67.50
84136;BME280;74238;50.566;7.262;2024-03-08T08:25:40;100734.63;;;4.19;67.40
84136;BME280;74238;50.566;7.262;2024-03-08T08:28:06;100733.88;;;4.28;67.26
84136;BME280;74238;50.566;7.262;2024-03-08T08:30:31;100727.91;;;4.38;67.47
84136;BME280;74238;50.566;7.262;2024-03-08T08:32:58;100728.91;;;4.49;67.34
84136;BME280;74238;50.566;7.262;2024-03-08T08:35:25;100717.69;;;4.56;67.50
84136;BME280;74238;50.566;7.262;2024-03-08T08:37:52;100663.44;;;4.38;66.74
84136;BME280;74238;50.566;7.262;2024-03-08T08:40:17;100710.94;;;4.77;65.82
84136;BME280;74238;50.566;7.262;2024-03-08T08:42:44;100713.63;;;4.84;66.61
84136;BME280;74238;50.566;7.262;2024-03-08T08:45:11;100715.47;;;4.96;65.96
84136;BME280;74238;50.566;7.262;2024-03-08T08:47:36;100717.34;;;5.06;66.27
84136;BME280;74238;50.566;7.262;2024-03-08T08:50:02;100714.28;;;5.57;63.68
84136;BME280;74238;50.566;7.262;2024-03-08T08:52:30;100634.09;;;5.78;62.89
84136;BME280;74238;50.566;7.262;2024-03-08T08:54:55;100690.38;;;6.62;60.26
84136;BME280;74238;50.566;7.262;2024-03-08T08:57:21;100697.50;;;7.01;59.52
84136;BME280;74238;50.566;7.262;2024-03-08T08:59:48;100698.38;;;7.23;58.54
84136;BME280;74238;50.566;7.262;2024-03-08T09:02:14;100692.25;;;7.38;58.63
84136;BME280;74238;50.566;7.262;2024-03-08T09:04:39;100681.75;;;7.55;58.49
84136;BME280;74238;50.566;7.262;2024-03-08T09:07:04;100681.75;;;7.63;57.58
84136;BME280;74238;50.566;7.262;2024-03-08T09:09:32;100677.34;;;7.69;58.00
84136;BME280;74238;50.566;7.262;2024-03-08T09:11:57;100643.22;;;7.51;56.85
84136;BME280;74238;50.566;7.262;2024-03-08T09:14:22;100682.59;;;7.80;58.03
84136;BME280;74238;50.566;7.262;2024-03-08T09:16:48;100681.66;;;7.92;57.08
84136;BME280;74238;50.566;7.262;2024-03-08T09:19:13;100666.72;;;8.12;57.38
84136;BME280;74238;50.566;7.262;2024-03-08T09:21:38;100662.31;;;8.16;56.80
84136;BME280;74238;50.566;7.262;2024-03-08T09:24:05;100657.06;;;8.11;57.06
84136;BME280;74238;50.566;7.262;2024-03-08T09:26:31;100669.31;;;8.17;56.69
84136;BME280;74238;50.566;7.262;2024-03-08T09:28:58;100658.75;;;8.31;55.10
84136;BME280;74238;50.566;7.262;2024-03-08T09:31:23;100651.75;;;8.27;56.30
84136;BME280;74238;50.566;7.262;2024-03-08T09:33:49;100645.56;;;8.38;57.00
84136;BME280;74238;50.566;7.262;2024-03-08T09:36:14;100648.22;;;8.40;56.30
84136;BME280;74238;50.566;7.262;2024-03-08T09:38:40;100637.69;;;8.41;56.27
84136;BME280;74238;50.566;7.262;2024-03-08T09:41:05;100640.31;;;8.43;55.72
84136;BME280;74238;50.566;7.262;2024-03-08T09:43:30;100625.41;;;8.37;55.36
84136;BME280;74238;50.566;7.262;2024-03-08T09:45:57;100640.31;;;8.43;56.12
84136;BME280;74238;50.566;7.262;2024-03-08T09:48:23;100627.13;;;8.46;54.99
84136;BME280;74238;50.566;7.262;2024-03-08T09:50:48;100628.84;;;8.53;55.10
84136;BME280;74238;50.566;7.262;2024-03-08T09:53:14;100611.34;;;8.46;53.99
84136;BME280;74238;50.566;7.262;2024-03-08T09:55:40;100588.59;;;8.31;54.75
84136;BME280;74238;50.566;7.262;2024-03-08T09:58:08;100613.13;;;8.41;54.61
84136;BME280;74238;50.566;7.262;2024-03-08T10:00:54;100537.06;;;8.01;53.92
84136;BME280;74238;50.566;7.262;2024-03-08T10:03:22;100549.22;;;8.19;53.82
84136;BME280;74238;50.566;7.262;2024-03-08T10:05:48;100593.75;;;8.54;53.85
84136;BME280;74238;50.566;7.262;2024-03-08T10:08:14;100604.25;;;8.63;53.71
84136;BME280;74238;50.566;7.262;2024-03-08T10:10:39;100586.66;;;8.67;53.43
84136;BME280;74238;50.566;7.262;2024-03-08T10:13:06;100593.66;;;8.68;52.03
84136;BME280;74238;50.566;7.262;2024-03-08T10:15:32;100586.66;;;8.69;53.66
84136;BME280;74238;50.566;7.262;2024-03-08T10:17:58;100582.22;;;8.75;53.36
84136;BME280;74238;50.566;7.262;2024-03-08T10:20:24;100592.66;;;8.87;52.56
84136;BME280;74238;50.566;7.262;2024-03-08T10:22:49;100546.25;;;8.73;53.10
84136;BME280;74238;50.566;7.262;2024-03-08T10:25:15;100563.59;;;8.95;51.15
84136;BME280;74238;50.566;7.262;2024-03-08T10:27:41;100573.25;;;8.98;51.55
84136;BME280;74238;50.566;7.262;2024-03-08T10:30:11;100562.69;;;9.02;50.46
84136;BME280;74238;50.566;7.262;2024-03-08T10:32:38;100526.81;;;8.89;51.74
84136;BME280;74238;50.566;7.262;2024-03-08T10:35:04;100549.38;;;9.16;51.23
84136;BME280;74238;50.566;7.262;2024-03-08T10:37:30;100496.13;;;8.86;52.17
84136;BME280;74238;50.566;7.262;2024-03-08T10:40:04;100539.59;;;9.27;49.96
84136;BME280;74238;50.566;7.262;2024-03-08T10:42:40;100487.16;;;9.04;50.90
84136;BME280;74238;50.566;7.262;2024-03-08T10:45:31;100532.34;;;9.49;49.89
84136;BME280;74238;50.566;7.262;2024-03-08T10:48:08;100532.16;;;9.65;50.43
84136;BME280;74238;50.566;7.262;2024-03-08T10:50:37;100536.44;;;9.75;50.88
84136;BME280;74238;50.566;7.262;2024-03-08T10:53:06;100509.25;;;9.70;49.27
84136;BME280;74238;50.566;7.262;2024-03-08T10:55:33;100531.91;;;9.86;48.98
84136;BME280;74238;50.566;7.262;2024-03-08T10:57:59;100532.72;;;9.91;50.74
84136;BME280;74238;50.566;7.262;2024-03-08T11:00:25;100528.28;;;9.95;49.54
84136;BME280;74238;50.566;7.262;2024-03-08T11:02:54;100524.63;;;10.04;49.64
84136;BME280;74238;50.566;7.262;2024-03-08T11:05:38;100520.22;;;10.06;48.05
84136;BME280;74238;50.566;7.262;2024-03-08T11:08:24;100520.22;;;10.06;47.65
84136;BME280;74238;50.566;7.262;2024-03-08T11:10:50;100506.97;;;10.09;49.89
84136;BME280;74238;50.566;7.262;2024-03-08T11:13:35;100486.81;;;10.05;48.06
84136;BME280;74238;50.566;7.262;2024-03-08T11:16:02;100465.94;;;9.91;48.70
84136;BME280;74238;50.566;7.262;2024-03-08T11:18:32;100488.44;;;10.13;48.74
84136;BME280;74238;50.566;7.262;2024-03-08T11:20:58;100434.34;;;9.86;49.14
84136;BME280;74238;50.566;7.262;2024-03-08T11:23:23;100498.78;;;10.30;49.04
84136;BME280;74238;50.566;7.262;2024-03-08T11:25:50;100454.97;;;10.17;47.86
84136;BME280;74238;50.566;7.262;2024-03-08T11:28:22;100478.53;;;10.32;47.57
84136;BME280;74238;50.566;7.262;2024-03-08T11:33:24;100472.22;;;10.39;47.85
84136;BME280;74238;50.566;7.262;2024-03-08T11:35:52;100459.88;;;10.41;47.95
84136;BME280;74238;50.566;7.262;2024-03-08T11:38:17;100454.53;;;10.48;47.58
84136;BME280;74238;50.566;7.262;2024-03-08T11:40:47;100453.59;;;10.50;45.31
84136;BME280;74238;50.566;7.262;2024-03-08T11:43:16;100435.28;;;10.39;45.83
84136;BME280;74238;50.566;7.262;2024-03-08T11:45:41;100455.31;;;10.53;45.36
84136;BME280;74238;50.566;7.262;2024-03-08T11:48:06;100457.06;;;10.54;46.30
84136;BME280;74238;50.566;7.262;2024-03-08T11:50:32;100442.06;;;10.56;46.20
84136;BME280;74238;50.566;7.262;2024-03-08T11:53:04;100431.34;;;10.65;45.83
84136;BME280;74238;50.566;7.262;2024-03-08T11:55:33;100434.72;;;10.73;46.07
84136;BME280;74238;50.566;7.262;2024-03-08T11:58:03;100433.63;;;10.85;46.19
84136;BME280;74238;50.566;7.262;2024-03-08T12:00:29;100416.06;;;10.82;46.09
84136;BME280;74238;50.566;7.262;2024-03-08T12:03:08;100429.00;;;10.96;45.96
84136;BME280;74238;50.566;7.262;2024-03-08T12:05:35;100432.50;;;10.98;45.77
84136;BME280;74238;50.566;7.262;2024-03-08T12:08:02;100428.00;;;11.03;45.70
84136;BME280;74238;50.566;7.262;2024-03-08T12:10:27;100390.38;;;10.91;45.08
84136;BME280;74238;50.566;7.262;2024-03-08T12:12:54;100420.78;;;11.13;45.57
84136;BME280;74238;50.566;7.262;2024-03-08T12:15:21;100408.44;;;11.12;45.26
84136;BME280;74238;50.566;7.262;2024-03-08T12:17:50;100412.66;;;11.21;44.90
84136;BME280;74238;50.566;7.262;2024-03-08T12:20:20;100404.88;;;11.15;43.86
84136;BME280;74238;50.566;7.262;2024-03-08T12:22:50;100410.00;;;11.21;44.63
84136;BME280;74238;50.566;7.262;2024-03-08T12:25:22;100404.66;;;11.25;45.02
84136;BME280;74238;50.566;7.262;2024-03-08T12:27:47;100356.56;;;11.08;44.05
84136;BME280;74238;50.566;7.262;2024-03-08T12:30:21;100356.56;;;11.08;44.30
84136;BME280;74238;50.566;7.262;2024-03-08T12:32:59;100400.13;;;11.30;43.68
84136;BME280;74238;50.566;7.262;2024-03-08T12:35:27;100390.38;;;11.34;44.70
84136;BME280;74238;50.566;7.262;2024-03-08T12:37:55;100378.78;;;11.40;44.69
84136;BME280;74238;50.566;7.262;2024-03-08T12:40:28;100327.50;;;11.08;43.59
84136;BME280;74238;50.566;7.262;2024-03-08T12:42:55;100383.88;;;11.49;44.18
84136;BME280;74238;50.566;7.262;2024-03-08T12:45:21;100382.97;;;11.51;43.27
84136;BME280;74238;50.566;7.262;2024-03-08T12:47:56;100351.66;;;11.31;43.62
84136;BME280;74238;50.566;7.262;2024-03-08T12:50:22;100350.00;;;11.27;43.44
84136;BME280;74238;50.566;7.262;2024-03-08T12:52:48;100368.16;;;11.43;42.65
84136;BME280;74238;50.566;7.262;2024-03-08T12:55:14;100372.50;;;11.45;43.91
84136;BME280;74238;50.566;7.262;2024-03-08T12:57:41;100361.81;;;11.50;43.86